Time;durP1;ratioP1;P1;durP2;ratioP2;P2;SDS_P1;SDS_P2;PMS_P1;PMS_P2;Temp;Humidity;BMP_temperature;BMP_pressure;BME280_temperature;BME280_humidity;BME280_pressure;Samples;Min_cycle;Max_cycle;Signal;HPM_P1;HPM_P2
2020/12/03 00:01:35;;;;;;;29.25;16.17;;;;;;;2.28;97.16;100183.59;5076697;28;20409;-69
2020/12/03 00:04:19;;;;;;;33.22;17.50;;;;;;;2.36;98.41;100180.53;5076593;28;20074;-69
2020/12/03 00:07:03;;;;;;;38.17;20.33;;;;;;;2.28;99.54;100174.88;5076597;28;20051;-69
2020/12/03 00:09:47;;;;;;;34.47;18.75;;;;;;;2.32;98.92;100177.25;5076249;28;20090;-69
2020/12/03 00:12:31;;;;;;;34.30;18.00;;;;;;;2.29;99.39;100168.69;5076395;28;20568;-69
2020/12/03 00:15:15;;;;;;;37.00;18.58;;;;;;;2.25;99.66;100165.41;5076130;28;20068;-69
2020/12/03 00:17:59;;;;;;;;;;;;;;;2.18;99.02;100158.81;5076584;28;20177;-69
2020/12/03 00:20:43;;;;;;;35.17;18.23;;;;;;;2.19;98.77;100160.50;5076613;28;20065;-69
2020/12/03 00:23:27;;;;;;;29.67;16.15;;;;;;;2.22;97.65;100160.34;5074888;28;20106;-69
2020/12/03 00:26:11;;;;;;;28.83;16.88;;;;;;;2.19;98.12;100160.50;5076251;28;20507;-67
2020/12/03 00:28:56;;;;;;;31.17;18.20;;;;;;;2.18;98.21;100152.72;5076071;28;20051;-69
2020/12/03 00:31:42;;;;;;;31.63;18.15;;;;;;;2.18;98.23;100158.81;5074996;28;20535;-71
2020/12/03 00:34:26;;;;;;;34.97;18.63;;;;;;;2.13;97.58;100149.53;5076063;28;20094;-67
2020/12/03 00:37:10;;;;;;;32.20;17.95;;;;;;;2.19;97.87;100155.25;5075744;28;20043;-69
2020/12/03 00:39:54;;;;;;;31.40;18.90;;;;;;;2.17;97.91;100141.34;5075745;28;20074;-69
2020/12/03 00:42:39;;;;;;;34.92;18.90;;;;;;;2.11;98.58;100144.38;5060736;28;20091;-69
2020/12/03 00:45:23;;;;;;;34.85;18.20;;;;;;;2.19;98.40;100143.91;5074682;28;20079;-69
2020/12/03 00:48:07;;;;;;;37.80;19.88;;;;;;;2.10;98.92;100136.56;5075780;28;20047;-70
2020/12/03 00:50:51;;;;;;;33.72;19.42;;;;;;;2.14;99.02;100131.03;5075502;28;20046;-69
2020/12/03 00:53:35;;;;;;;33.78;19.38;;;;;;;2.10;99.42;100128.69;5074424;28;20055;-69
2020/12/03 00:56:19;;;;;;;34.75;19.60;;;;;;;2.06;100.00;100128.03;5075673;28;20082;-69
2020/12/03 00:59:03;;;;;;;35.85;19.50;;;;;;;2.01;100.00;100124.84;5060115;28;20102;-69
2020/12/03 01:01:47;;;;;;;39.03;19.90;;;;;;;1.87;100.00;100111.69;5060095;28;20082;-70
2020/12/03 01:04:31;;;;;;;35.03;19.52;;;;;;;1.90;100.00;100110.66;5074528;28;20106;-67
2020/12/03 01:07:15;;;;;;;33.85;20.10;;;;;;;1.87;100.00;100111.69;5073721;28;20102;-70
2020/12/03 01:09:59;;;;;;;37.45;21.25;;;;;;;1.85;100.00;100118.00;5074439;28;20596;-69
2020/12/03 01:12:43;;;;;;;37.80;21.15;;;;;;;1.87;100.00;100103.81;5075141;28;20074;-69
2020/12/03 01:15:28;;;;;;;35.33;20.10;;;;;;;1.85;100.00;100102.22;5074165;28;20079;-70
2020/12/03 01:18:12;;;;;;;36.55;19.30;;;;;;;1.85;100.00;100096.97;5075246;28;20051;-69
2020/12/03 01:20:56;;;;;;;38.35;19.85;;;;;;;1.83;100.00;100094.44;5075235;28;20122;-69
2020/12/03 01:23:40;;;;;;;38.25;21.05;;;;;;;1.79;100.00;100090.31;5074842;28;20097;-69
2020/12/03 01:26:24;;;;;;;40.83;21.63;;;;;;;1.78;100.00;100085.13;5074853;28;20101;-69
2020/12/03 01:29:08;;;;;;;40.85;20.58;;;;;;;1.82;100.00;100076.97;5074811;28;20130;-70
2020/12/03 01:31:53;;;;;;;38.92;21.50;;;;;;;1.79;100.00;100071.91;5073773;28;20048;-70
2020/12/03 01:34:38;;;;;;;42.38;22.02;;;;;;;1.79;100.00;100066.66;5073968;28;20089;-70
2020/12/03 01:37:22;;;;;;;39.60;20.95;;;;;;;1.76;100.00;100060.75;5074758;28;20060;-69
2020/12/03 01:40:14;;;;;;;39.92;21.67;;;;;;;1.81;100.00;100054.25;5073894;28;20055;-70
2020/12/03 01:42:58;;;;;;;39.25;20.75;;;;;;;1.75;100.00;100048.53;5073418;28;20105;-70
2020/12/03 01:46:01;;;;;;;38.17;19.90;;;;;;;1.82;100.00;100048.06;5073724;28;20468;-68
2020/12/03 01:48:54;;;;;;;39.00;20.10;;;;;;;1.82;100.00;100040.19;5059448;28;20094;-70
2020/12/03 01:51:40;;;;;;;37.35;19.90;;;;;;;1.79;100.00;100035.13;5073581;28;20066;-70
2020/12/03 01:54:24;;;;;;;38.35;20.65;;;;;;;1.79;100.00;100035.13;5074488;28;20052;-70
2020/12/03 01:57:52;;;;;;;37.08;19.88;;;;;;;1.72;100.00;100027.69;5059346;28;20459;-70
2020/12/03 02:00:36;;;;;;;39.97;20.48;;;;;;;1.75;100.00;100023.09;5052801;28;20043;-70
2020/12/03 02:03:20;;;;;;;39.35;19.58;;;;;;;1.75;100.00;100012.56;5073358;28;20074;-70
2020/12/03 02:06:04;;;;;;;39.85;19.85;;;;;;;1.78;100.00;100006.28;5074392;28;20431;-70
2020/12/03 02:08:48;;;;;;;38.08;20.10;;;;;;;1.77;100.00;100004.63;5073963;28;20119;-70
2020/12/03 02:11:32;;;;;;;34.45;19.38;;;;;;;1.77;100.00;99999.34;5073187;28;20071;-70
2020/12/03 02:14:16;;;;;;;37.60;19.52;;;;;;;1.71;100.00;100000.59;5073139;28;20470;-70
2020/12/03 02:17:00;;;;;;;39.53;18.92;;;;;;;1.71;100.00;99994.47;5073383;28;20048;-70
2020/12/03 02:19:52;;;;;;;36.95;18.95;;;;;;;1.78;100.00;99986.09;5072912;28;20412;-70
2020/12/03 02:22:36;;;;;;;34.00;17.85;;;;;;;1.74;100.00;99992.50;5073928;28;20043;-70
2020/12/03 02:25:20;;;;;;;34.80;17.95;;;;;;;1.79;100.00;99990.44;5072649;28;20539;-70
2020/12/03 02:28:04;;;;;;;35.05;17.63;;;;;;;1.84;100.00;99990.13;5073825;28;20059;-70
2020/12/03 02:30:48;;;;;;;32.30;17.35;;;;;;;1.83;100.00;99983.19;5072608;28;20125;-70
2020/12/03 02:33:32;;;;;;;29.52;16.88;;;;;;;1.74;100.00;99984.63;5072325;28;20089;-70
2020/12/03 02:36:16;;;;;;;33.70;17.20;;;;;;;1.79;100.00;99972.03;5073798;28;20086;-71
2020/12/03 02:39:00;;;;;;;31.20;16.30;;;;;;;1.82;100.00;99971.00;5073716;28;20132;-69
2020/12/03 02:41:44;;;;;;;27.35;15.60;;;;;;;1.89;100.00;99967.91;5072683;28;20413;-70
2020/12/03 02:44:29;;;;;;;32.28;16.40;;;;;;;1.86;100.00;99959.34;5072717;28;20098;-70
2020/12/03 02:47:16;;;;;;;29.45;15.77;;;;;;;1.82;100.00;99956.06;5058711;28;20063;-70
2020/12/03 02:50:02;;;;;;;33.47;17.05;;;;;;;1.86;100.00;99947.03;5070990;28;20159;-70
2020/12/03 02:52:46;;;;;;;30.67;16.05;;;;;;;1.89;100.00;99949.50;5073464;28;20055;-70
2020/12/03 02:55:30;;;;;;;34.42;17.70;;;;;;;1.89;100.00;99949.50;5072539;28;20051;-70
2020/12/03 02:58:14;;;;;;;31.73;17.17;;;;;;;1.83;100.00;99947.25;5073295;28;20504;-70
2020/12/03 03:00:58;;;;;;;31.98;17.73;;;;;;;1.87;100.00;99953.16;5073227;28;20073;-70
2020/12/03 03:03:42;;;;;;;35.78;18.70;;;;;;;1.90;100.00;99958.22;5058042;28;20124;-70
2020/12/03 03:06:26;;;;;;;32.10;17.77;;;;;;;1.89;100.00;99967.03;5073427;28;20167;-71
2020/12/03 03:09:10;;;;;;;34.70;18.17;;;;;;;1.91;100.00;99960.75;5073458;28;20052;-68
2020/12/03 03:11:54;;;;;;;31.55;16.63;;;;;;;1.83;100.00;99952.50;5072299;28;20047;-71
2020/12/03 03:14:38;;;;;;;34.05;17.92;;;;;;;1.83;100.00;99947.25;5073371;28;20043;-70
2020/12/03 03:17:22;;;;;;;30.67;17.58;;;;;;;1.83;100.00;99941.13;5073153;28;20512;-70
2020/12/03 03:20:06;;;;;;;34.50;18.10;;;;;;;1.85;100.00;99936.66;5072006;28;20069;-70
2020/12/03 03:22:51;;;;;;;32.08;18.00;;;;;;;1.86;100.00;99933.91;5071885;28;20420;-70
2020/12/03 03:25:35;;;;;;;33.58;18.42;;;;;;;1.89;100.00;99936.34;5072229;28;20079;-70
2020/12/03 03:28:19;;;;;;;35.65;17.75;;;;;;;1.89;100.00;99930.25;5071865;28;20098;-69
2020/12/03 03:31:03;;;;;;;36.40;18.25;;;;;;;1.86;100.00;99936.53;5072712;28;20059;-70
2020/12/03 03:33:47;;;;;;;32.50;15.75;;;;;;;1.81;100.00;99938.63;5073965;22;20133;-67
2020/12/03 03:36:31;;;;;;;32.10;17.48;;;;;;;1.77;100.00;99934.50;5076898;28;20067;-67
2020/12/03 03:39:20;;;;;;;33.70;17.08;;;;;;;1.74;100.00;99942.56;5076920;28;20511;-68
2020/12/03 03:42:05;;;;;;;31.17;16.67;;;;;;;1.73;100.00;99940.88;5075798;28;20071;-67
2020/12/03 03:44:49;;;;;;;35.90;20.05;;;;;;;1.70;100.00;99951.59;5075778;28;20047;-67
2020/12/03 03:47:32;;;;;;;39.40;19.27;;;;;;;1.73;100.00;99940.03;5076754;28;20114;-67
2020/12/03 03:50:16;;;;;;;36.70;19.35;;;;;;;1.71;100.00;99942.78;5076732;28;20068;-67
2020/12/03 03:53:00;;;;;;;38.13;19.70;;;;;;;1.74;100.00;99942.56;5076136;28;20190;-67
2020/12/03 03:55:44;;;;;;;35.65;18.52;;;;;;;1.74;100.00;99939.94;5061538;28;20051;-68
2020/12/03 03:58:28;;;;;;;36.47;20.70;;;;;;;1.76;100.00;99934.59;5076021;28;20086;-68
2020/12/03 04:01:12;;;;;;;40.10;18.83;;;;;;;1.72;100.00;99933.09;5061635;28;20048;-68
2020/12/03 04:03:56;;;;;;;39.35;19.67;;;;;;;1.75;100.00;99927.66;5076315;28;20094;-67
2020/12/03 04:06:40;;;;;;;34.58;17.90;;;;;;;1.72;100.00;99930.47;5075295;28;20123;-67
2020/12/03 04:09:24;;;;;;;45.80;20.83;;;;;;;1.63;100.00;99924.00;5075588;28;20047;-67
2020/12/03 04:12:08;;;;;;;43.85;20.83;;;;;;;1.66;100.00;99926.44;5075573;28;20128;-68
2020/12/03 04:14:52;;;;;;;44.47;20.15;;;;;;;1.68;100.00;99928.97;5061106;28;20051;-66
2020/12/03 04:17:36;;;;;;;36.28;19.85;;;;;;;1.68;100.00;99932.44;5076236;28;20087;-68
2020/12/03 04:20:20;;;;;;;38.53;20.02;;;;;;;1.70;100.00;99938.47;5076344;28;20055;-68
2020/12/03 04:23:06;;;;;;;41.33;21.42;;;;;;;1.74;100.00;99944.34;5076324;28;20125;-68
2020/12/03 04:25:50;;;;;;;39.33;20.48;;;;;;;1.75;100.00;99928.50;5074995;28;20078;-68
2020/12/03 04:28:34;;;;;;;38.20;20.83;;;;;;;1.75;100.00;99932.91;5075193;28;20106;-68
2020/12/03 04:31:18;;;;;;;39.67;20.05;;;;;;;1.79;100.00;99934.41;5075166;28;20052;-67
2020/12/03 04:34:03;;;;;;;40.08;20.17;;;;;;;1.78;100.00;99922.19;5075689;28;20075;-68
2020/12/03 04:36:46;;;;;;;39.97;20.52;;;;;;;1.77;100.00;99920.53;5075822;28;20079;-68
2020/12/03 04:39:30;;;;;;;42.65;21.27;;;;;;;1.79;100.00;99914.25;5075997;28;20133;-68
2020/12/03 04:42:28;;;;;;;35.17;20.50;;;;;;;1.81;100.00;99912.34;5074068;28;20047;-68
2020/12/03 04:45:25;;;;;;;42.33;21.73;;;;;;;1.78;100.00;99912.53;5060396;28;20048;-68
2020/12/03 04:48:30;;;;;;;39.25;21.17;;;;;;;1.81;100.00;99904.47;5074619;28;20074;-68
2020/12/03 04:51:30;;;;;;;41.33;21.10;;;;;;;1.79;100.00;99906.34;5075566;28;20081;-68
2020/12/03 04:54:40;;;;;;;39.63;21.17;;;;;;;1.85;100.00;99900.69;5075441;28;20130;-68
2020/12/03 04:57:36;;;;;;;43.47;21.27;;;;;;;1.83;100.00;99894.69;5074952;28;20553;-68
2020/12/03 05:00:29;;;;;;;38.55;19.50;;;;;;;1.89;100.00;99898.69;5074742;28;20142;-68
2020/12/03 05:03:38;;;;;;;42.58;20.90;;;;;;;1.88;100.00;99891.75;5074803;28;20561;-68
2020/12/03 05:06:46;;;;;;;41.15;19.40;;;;;;;1.89;100.00;99891.69;5075275;28;20044;-68
2020/12/03 05:09:33;;;;;;;38.80;20.95;;;;;;;1.89;100.00;99889.03;5074309;28;20051;-67
2020/12/03 05:12:22;;;;;;;40.60;21.23;;;;;;;1.90;100.00;99879.34;5075143;28;20131;-66
2020/12/03 05:15:33;;;;;;;44.13;22.42;;;;;;;1.91;100.00;99873.16;5074121;28;20562;-68
2020/12/03 05:18:24;;;;;;;46.55;22.55;;;;;;;2.01;100.00;99864.59;5074273;28;20129;-67
2020/12/03 05:21:12;;;;;;;45.28;22.10;;;;;;;1.99;100.00;99868.25;5074231;28;20458;-67
2020/12/03 05:23:57;;;;;;;45.80;24.15;;;;;;;2.01;100.00;99866.34;5073938;28;20551;-67
2020/12/03 05:26:41;;;;;;;45.47;22.50;;;;;;;2.02;100.00;99868.91;5074917;28;20117;-66
2020/12/03 05:29:25;;;;;;;47.28;23.13;;;;;;;2.02;100.00;99861.00;5074062;28;20099;-67
2020/12/03 05:32:11;;;;;;;42.55;19.65;;;;;;;2.07;100.00;99853.66;5074771;28;20086;-68
2020/12/03 05:34:56;;;;;;;50.05;24.67;;;;;;;2.11;100.00;99843.78;5073616;28;20043;-67
2020/12/03 05:37:40;;;;;;;49.03;24.30;;;;;;;2.09;100.00;99843.03;5073713;28;20117;-67
2020/12/03 05:40:25;;;;;;;47.85;22.98;;;;;;;2.10;100.00;99844.72;5073620;28;20048;-66
2020/12/03 05:43:09;;;;;;;45.20;24.00;;;;;;;2.12;100.00;99830.53;5073766;28;20599;-68
2020/12/03 05:45:53;;;;;;;48.00;24.08;;;;;;;2.15;100.00;99838.22;5074696;28;20128;-67
2020/12/03 05:48:37;;;;;;;48.42;22.35;;;;;;;2.18;100.00;99842.44;5074526;28;20094;-68
2020/12/03 05:51:29;;;;;;;50.30;24.30;;;;;;;2.20;100.00;99836.13;5059484;28;20523;-67
2020/12/03 05:54:13;;;;;;;48.80;22.58;;;;;;;2.23;100.00;99830.66;5072746;28;20524;-68
2020/12/03 05:56:57;;;;;;;51.65;24.58;;;;;;;2.22;100.00;99828.97;5073442;28;20071;-68
2020/12/03 05:59:41;;;;;;;;;;;;;;;2.22;100.00;99828.97;5073637;28;20128;-68
2020/12/03 06:02:40;;;;;;;40.60;20.40;;;;;;;2.21;100.00;99834.34;5074369;28;19919;-68
2020/12/03 06:05:54;;;;;;;50.80;24.63;;;;;;;2.19;100.00;99829.16;5072970;28;20269;-67
2020/12/03 06:08:53;;;;;;;47.22;25.25;;;;;;;2.20;100.00;99823.00;5073854;28;20066;-67
2020/12/03 06:11:56;;;;;;;52.47;25.38;;;;;;;2.25;100.00;99830.53;5073139;28;20046;-67
2020/12/03 06:15:08;;;;;;;43.25;22.90;;;;;;;2.29;100.00;99830.22;5073660;28;20044;-67
2020/12/03 06:18:12;;;;;;;49.28;23.02;;;;;;;2.29;100.00;99830.22;5074041;28;20110;-68
2020/12/03 06:21:16;;;;;;;42.53;22.77;;;;;;;2.30;100.00;99813.53;5072995;28;20094;-67
2020/12/03 06:24:06;;;;;;;44.50;23.70;;;;;;;2.27;100.00;99813.72;5072870;28;20163;-68
2020/12/03 06:27:05;;;;;;;46.50;23.67;;;;;;;2.31;100.00;99804.69;5073547;28;20127;-68
2020/12/03 06:29:57;;;;;;;49.95;22.92;;;;;;;2.37;100.00;99806.88;5073561;28;20102;-68
2020/12/03 06:32:51;;;;;;;46.72;22.75;;;;;;;2.39;100.00;99798.91;5073477;28;20467;-67
2020/12/03 06:36:00;;;;;;;45.40;22.67;;;;;;;2.37;100.00;99790.28;5072413;28;20121;-67
2020/12/03 06:39:03;;;;;;;48.13;23.20;;;;;;;2.41;100.00;99782.09;5073313;28;20284;-68
2020/12/03 06:42:12;;;;;;;44.17;22.45;;;;;;;2.36;100.00;99784.16;5073580;28;20051;-67
2020/12/03 06:45:20;;;;;;;45.83;23.17;;;;;;;2.38;100.00;99777.00;5072176;28;20051;-67
2020/12/03 06:48:50;;;;;;;43.85;21.33;;;;;;;2.42;100.00;99774.06;5072556;28;20081;-68
2020/12/03 06:51:44;;;;;;;46.70;23.15;;;;;;;2.42;100.00;99764.50;5048388;28;20043;-67
2020/12/03 06:54:52;;;;;;;38.38;18.48;;;;;;;2.42;100.00;99766.16;5072387;28;20055;-67
2020/12/03 06:57:54;;;;;;;41.47;20.92;;;;;;;2.50;100.00;99765.63;5072454;28;20511;-67
2020/12/03 07:00:38;;;;;;;40.75;19.67;;;;;;;2.56;99.14;99767.84;5073090;28;20054;-67
2020/12/03 07:04:00;;;;;;;36.72;19.08;;;;;;;2.58;98.90;99761.56;5073145;28;20067;-68
2020/12/03 07:07:07;;;;;;;40.00;20.60;;;;;;;2.57;99.23;99759.00;5072200;28;20039;-68
2020/12/03 07:10:16;;;;;;;40.38;21.13;;;;;;;2.58;98.72;99753.66;5072549;28;20082;-68
2020/12/03 07:13:21;;;;;;;41.97;21.55;;;;;;;2.62;98.47;99749.84;5073295;28;20043;-68
2020/12/03 07:16:59;;;;;;;39.45;20.30;;;;;;;2.66;98.25;99737.31;5072978;28;20052;-67
2020/12/03 07:20:02;;;;;;;35.88;15.60;;;;;;;2.64;97.63;99741.84;5032487;28;20056;-68
2020/12/03 07:22:49;;;;;;;40.13;21.13;;;;;;;2.66;97.96;99729.44;5072188;28;20047;-68
2020/12/03 07:25:33;;;;;;;40.03;19.80;;;;;;;2.66;97.92;99726.78;5072043;28;20043;-67
2020/12/03 07:28:32;;;;;;;42.00;22.40;;;;;;;2.70;97.61;99733.50;5072769;28;20532;-67
2020/12/03 07:31:23;;;;;;;39.92;21.25;;;;;;;2.68;97.49;99732.78;5072130;28;20064;-67
2020/12/03 07:34:26;;;;;;;38.67;20.70;;;;;;;2.68;97.78;99723.13;5071790;28;20447;-67
2020/12/03 07:37:44;;;;;;;37.58;19.77;;;;;;;2.64;98.16;99723.44;5073028;28;20515;-67
2020/12/03 07:40:29;;;;;;;45.03;21.25;;;;;;;2.71;97.30;99727.34;5072796;28;20094;-68
2020/12/03 07:43:26;;;;;;;33.90;18.33;;;;;;;2.77;96.65;99725.09;5071907;28;20081;-68
2020/12/03 07:46:28;;;;;;;37.00;20.75;;;;;;;2.81;96.26;99717.81;5071627;28;20063;-68
2020/12/03 07:49:42;;;;;;;40.35;20.02;;;;;;;2.82;96.18;99715.06;5072774;28;20101;-67
2020/12/03 07:52:26;;;;;;;36.28;19.75;;;;;;;2.85;95.62;99706.13;5071725;28;20126;-66
2020/12/03 07:55:19;;;;;;;36.08;18.65;;;;;;;2.87;96.00;99717.38;5071728;28;20043;-68
2020/12/03 07:58:03;;;;;;;38.13;18.25;;;;;;;2.91;96.27;99695.13;5072806;28;20397;-68
2020/12/03 08:00:52;;;;;;;35.97;19.75;;;;;;;2.93;96.40;99695.91;5071808;28;20055;-67
2020/12/03 08:03:47;;;;;;;37.05;19.45;;;;;;;2.90;96.40;99683.78;5071517;28;20051;-67
2020/12/03 08:06:32;;;;;;;36.40;18.63;;;;;;;2.93;96.21;99683.56;5072492;28;20591;-67
2020/12/03 08:09:22;;;;;;;41.05;19.55;;;;;;;2.94;95.93;99677.34;5057370;28;20083;-67
2020/12/03 08:12:17;;;;;;;41.42;21.40;;;;;;;2.95;96.60;99668.47;5071918;28;20503;-68
2020/12/03 08:15:03;;;;;;;40.15;19.98;;;;;;;2.99;96.01;99666.47;5072307;28;20063;-68
2020/12/03 08:17:47;;;;;;;38.20;20.67;;;;;;;3.02;96.50;99658.38;5073366;28;20512;-67
2020/12/03 08:20:42;;;;;;;41.22;19.83;;;;;;;3.03;95.88;99654.78;5076197;28;20131;-68
2020/12/03 08:23:26;;;;;;;34.92;16.52;;;;;;;2.96;96.11;99641.22;5074775;28;20405;-68
2020/12/03 08:26:10;;;;;;;44.30;22.13;;;;;;;3.00;96.62;99644.44;5075071;28;20055;-68
2020/12/03 08:28:54;;;;;;;41.35;21.20;;;;;;;3.00;97.07;99639.19;5076109;28;20055;-68
2020/12/03 08:31:38;;;;;;;39.25;22.25;;;;;;;3.10;97.73;99635.78;5060532;28;20119;-68
2020/12/03 08:34:22;;;;;;;46.58;22.83;;;;;;;3.19;97.62;99619.31;5075398;28;20055;-68
2020/12/03 08:37:11;;;;;;;45.65;22.88;;;;;;;3.19;98.04;99623.72;5074606;28;20083;-68
2020/12/03 08:39:56;;;;;;;42.20;22.45;;;;;;;3.11;98.45;99616.38;5074744;28;20094;-68
2020/12/03 08:42:40;;;;;;;43.92;23.20;;;;;;;3.17;98.19;99620.38;5075812;28;20047;-69
2020/12/03 08:45:24;;;;;;;44.55;19.80;;;;;;;3.12;97.60;99619.88;5075581;28;20047;-68
2020/12/03 08:48:12;;;;;;;49.35;24.42;;;;;;;3.04;99.31;99627.50;5074380;28;20094;-68
2020/12/03 08:51:05;;;;;;;43.17;20.40;;;;;;;2.98;98.48;99622.66;5074464;28;20059;-68
2020/12/03 08:53:49;;;;;;;46.57;23.83;;;;;;;2.99;99.37;99613.81;5075333;28;20417;-68
2020/12/03 08:56:35;;;;;;;47.05;24.73;;;;;;;2.97;99.20;99602.56;5074406;28;20752;-68
2020/12/03 08:59:27;;;;;;;44.78;23.45;;;;;;;3.08;99.45;99607.88;5074451;28;20523;-68
2020/12/03 09:02:16;;;;;;;42.22;21.80;;;;;;;3.08;97.94;99610.50;5060190;28;20082;-68
2020/12/03 09:05:01;;;;;;;48.70;24.63;;;;;;;3.14;99.07;99603.00;5075434;28;20051;-68
2020/12/03 09:07:47;;;;;;;49.75;23.02;;;;;;;3.18;98.12;99598.34;5075091;28;20055;-68
2020/12/03 09:10:33;;;;;;;40.67;22.27;;;;;;;3.13;97.40;99597.84;5074094;28;20051;-68
2020/12/03 09:13:18;;;;;;;43.47;21.48;;;;;;;3.21;96.87;99606.00;5074152;28;20523;-68
2020/12/03 09:16:03;;;;;;;41.60;20.98;;;;;;;3.25;96.86;99607.47;5059669;28;20047;-68
2020/12/03 09:18:48;;;;;;;38.70;21.13;;;;;;;3.27;96.45;99597.66;5074940;28;20097;-68
2020/12/03 09:21:32;;;;;;;42.65;22.75;;;;;;;3.29;96.01;99587.84;5073911;28;20075;-68
2020/12/03 09:24:20;;;;;;;39.42;18.77;;;;;;;3.30;95.52;99594.78;5075177;28;20474;-66
2020/12/03 09:27:06;;;;;;;41.20;19.35;;;;;;;3.37;94.80;99596.00;5073962;28;20054;-68
2020/12/03 09:29:53;;;;;;;35.72;19.25;;;;;;;3.45;93.34;99585.75;5072867;28;20051;-68
2020/12/03 09:32:39;;;;;;;34.33;18.08;;;;;;;3.55;92.91;99592.00;5074588;28;20102;-69
2020/12/03 09:35:23;;;;;;;37.05;20.30;;;;;;;3.58;92.41;99583.84;5095801;22;20152;-69
2020/12/03 09:38:09;;;;;;;22.58;12.27;;;;;;;3.61;90.92;99573.91;5073979;28;20046;-71
2020/12/03 09:40:53;;;;;;;30.40;15.98;;;;;;;3.62;90.68;99564.19;5073791;28;20051;-70
2020/12/03 09:43:45;;;;;;;33.00;17.27;;;;;;;3.73;91.51;99562.41;5074792;28;20088;-70
2020/12/03 09:46:30;;;;;;;29.58;15.75;;;;;;;3.78;88.71;99562.06;5054897;28;20513;-70
2020/12/03 09:49:15;;;;;;;31.23;15.75;;;;;;;3.85;88.21;99550.09;5053663;28;20063;-71
2020/12/03 09:52:03;;;;;;;27.58;15.00;;;;;;;3.94;86.38;99567.84;5053623;28;20043;-69
2020/12/03 09:54:47;;;;;;;25.33;13.63;;;;;;;3.93;85.67;99547.69;5054340;28;20056;-70
2020/12/03 09:57:32;;;;;;;25.23;13.57;;;;;;;3.92;85.64;99541.59;5053303;28;20048;-70
2020/12/03 10:00:17;;;;;;;27.45;14.70;;;;;;;4.08;85.62;99542.03;5054219;28;20136;-69
2020/12/03 10:03:25;;;;;;;22.55;13.05;;;;;;;4.10;84.27;99523.47;5054586;28;20098;-69
2020/12/03 10:06:25;;;;;;;23.00;13.23;;;;;;;4.09;84.07;99530.56;5054633;28;20437;-69
2020/12/03 10:09:21;;;;;;;22.05;11.40;;;;;;;4.10;84.28;99526.94;5039185;28;20098;-70
2020/12/03 10:12:14;;;;;;;23.83;14.23;;;;;;;4.17;83.72;99522.03;5054355;28;20094;-68
2020/12/03 10:15:16;;;;;;;26.35;15.35;;;;;;;4.22;84.89;99518.06;5054101;28;20079;-69
2020/12/03 10:18:09;;;;;;;24.65;13.55;;;;;;;4.26;83.34;99506.28;5052962;28;20048;-68
2020/12/03 10:20:53;;;;;;;25.17;13.48;;;;;;;4.22;82.39;99506.66;5053947;28;20051;-69
2020/12/03 10:23:40;;;;;;;22.30;12.43;;;;;;;4.23;82.13;99503.06;5052481;28;20461;-69
2020/12/03 10:26:32;;;;;;;24.35;13.90;;;;;;;4.32;82.84;99489.13;5052558;28;20496;-70
2020/12/03 10:29:32;;;;;;;22.40;13.77;;;;;;;4.42;82.35;99492.69;5053560;28;20043;-69
2020/12/03 10:32:18;;;;;;;23.80;11.93;;;;;;;4.39;81.32;99479.75;5053763;28;20473;-69
2020/12/03 10:35:03;;;;;;;16.13;9.18;;;;;;;4.35;80.16;99486.25;5053438;28;20048;-69
2020/12/03 10:37:53;;;;;;;24.75;12.30;;;;;;;4.32;80.04;99470.66;5052724;28;20615;-69
2020/12/03 10:40:38;;;;;;;22.25;12.40;;;;;;;4.32;80.55;99471.50;5052345;28;20044;-70
2020/12/03 10:43:29;;;;;;;20.90;12.38;;;;;;;4.36;80.58;99456.28;5052724;28;20107;-70
2020/12/03 10:46:18;;;;;;;19.63;9.98;;;;;;;4.36;80.43;99453.63;5053679;28;20095;-70
2020/12/03 10:49:02;;;;;;;19.88;12.20;;;;;;;4.40;81.24;99447.13;5038567;28;20445;-70
2020/12/03 10:51:46;;;;;;;21.40;11.63;;;;;;;4.37;80.78;99439.47;5052609;28;20056;-70
2020/12/03 10:54:34;;;;;;;20.73;12.10;;;;;;;4.42;81.88;99434.63;5052523;28;20097;-70
2020/12/03 10:57:21;;;;;;;19.25;12.07;;;;;;;4.50;80.74;99416.38;5052699;28;20051;-70
2020/12/03 11:00:08;;;;;;;18.02;11.68;;;;;;;4.52;80.61;99403.91;5038279;28;20098;-70
2020/12/03 11:02:56;;;;;;;19.40;12.20;;;;;;;4.61;80.30;99403.13;5052154;28;20048;-70
2020/12/03 11:05:44;;;;;;;22.40;11.18;;;;;;;4.57;80.72;99397.25;5052843;28;20457;-70
2020/12/03 11:08:36;;;;;;;17.58;11.13;;;;;;;4.59;79.99;99394.50;5052229;28;20102;-70
2020/12/03 11:11:22;;;;;;;18.83;11.57;;;;;;;4.69;79.66;99390.97;5052151;28;20051;-71
2020/12/03 11:14:10;;;;;;;18.60;11.52;;;;;;;4.77;80.13;99377.13;5053117;28;20044;-69
2020/12/03 11:16:57;;;;;;;19.23;11.07;;;;;;;4.89;78.70;99370.81;5051923;28;20524;-71
2020/12/03 11:19:42;;;;;;;19.83;11.40;;;;;;;4.99;79.04;99356.69;5052100;28;20048;-69
2020/12/03 11:22:35;;;;;;;18.15;10.52;;;;;;;5.04;77.73;99357.94;5051972;28;20110;-69
2020/12/03 11:25:26;;;;;;;17.48;10.45;;;;;;;5.05;77.74;99343.78;5053166;28;20540;-69
2020/12/03 11:28:26;;;;;;;19.40;6.88;;;;;;;5.10;75.48;99333.66;5052067;28;20600;-71
2020/12/03 11:31:10;;;;;;;17.00;9.05;;;;;;;5.11;75.92;99330.06;5052525;28;20520;-70
2020/12/03 11:33:54;;;;;;;12.88;8.15;;;;;;;5.10;75.01;99323.09;5039430;28;20562;-70
2020/12/03 11:36:39;;;;;;;;;;;;;;;5.01;74.62;99323.88;5053784;28;20172;-68
2020/12/03 11:39:27;;;;;;;13.95;7.35;;;;;;;5.11;76.01;99326.59;5054135;28;19919;-71
2020/12/03 11:51:02;;;;;;;10.30;5.50;;;;;;;5.04;73.74;99305.13;5051766;28;20044;-69
2020/12/03 11:53:55;;;;;;;11.02;6.47;;;;;;;5.02;74.72;99296.50;5056413;28;20569;-71
2020/12/03 11:56:39;;;;;;;10.82;7.22;;;;;;;5.00;75.25;99289.69;5055917;28;20106;-68
2020/12/03 11:59:30;;;;;;;10.27;6.15;;;;;;;5.02;73.31;99283.31;5056457;28;20098;-70
2020/12/03 12:02:14;;;;;;;9.48;5.78;;;;;;;5.02;74.05;99285.94;5056749;28;20405;-70
2020/12/03 12:05:05;;;;;;;10.90;6.75;;;;;;;5.02;73.82;99262.16;5055697;28;20052;-70
2020/12/03 12:08:00;;;;;;;8.60;6.15;;;;;;;5.02;73.91;99256.88;5056339;28;20044;-70
2020/12/03 12:13:52;;;;;;;12.27;7.10;;;;;;;5.14;74.03;99255.81;5056667;28;20555;-70
2020/12/03 12:16:36;;;;;;;10.40;7.03;;;;;;;5.13;73.59;99243.56;5055178;28;20051;-69
2020/12/03 12:19:21;;;;;;;14.35;6.72;;;;;;;5.16;73.18;99251.25;5056148;28;20193;-70
2020/12/03 12:22:06;;;;;;;10.85;6.53;;;;;;;5.26;73.77;99246.84;5054923;28;20098;-70
2020/12/03 12:24:51;;;;;;;11.10;6.63;;;;;;;5.34;74.39;99241.69;5055127;28;20044;-70
2020/12/03 12:27:35;;;;;;;12.25;7.05;;;;;;;5.42;74.11;99233.09;5056135;28;20091;-70
2020/12/03 12:30:19;;;;;;;10.15;5.72;;;;;;;5.45;73.05;99232.81;5055166;28;20079;-70
2020/12/03 12:33:04;;;;;;;10.95;7.03;;;;;;;5.40;72.62;99224.44;5054821;28;20150;-70
2020/12/03 12:35:48;;;;;;;10.07;6.05;;;;;;;6.45;69.34;99212.84;5055477;28;20134;-69
2020/12/03 12:38:32;;;;;;;10.07;5.95;;;;;;;7.42;65.06;99209.59;5054929;28;20052;-71
2020/12/03 12:41:16;;;;;;;9.10;5.57;;;;;;;8.12;61.90;99202.44;5054886;28;20063;-69
2020/12/03 12:44:00;;;;;;;8.65;5.78;;;;;;;8.37;59.96;99191.88;5055572;28;20051;-71
2020/12/03 12:46:44;;;;;;;10.27;6.28;;;;;;;8.37;60.16;99186.56;5055988;28;20417;-69
2020/12/03 12:49:28;;;;;;;9.73;6.25;;;;;;;8.43;59.61;99195.72;5054710;28;20179;-69
2020/12/03 12:52:12;;;;;;;8.98;5.35;;;;;;;9.01;58.31;99188.72;5054767;28;20052;-70
2020/12/03 12:54:57;;;;;;;8.20;5.65;;;;;;;8.91;59.42;99172.91;5054503;28;20098;-68
2020/12/03 12:57:41;;;;;;;8.57;5.10;;;;;;;8.52;59.01;99168.22;5055670;28;20464;-68
2020/12/03 13:00:25;;;;;;;7.32;4.75;;;;;;;8.58;59.06;99168.41;5055616;28;20408;-69
2020/12/03 13:03:10;;;;;;;9.93;6.45;;;;;;;8.23;60.04;99157.94;5053902;28;20116;-70
2020/12/03 13:05:54;;;;;;;6.88;4.70;;;;;;;8.31;59.50;99147.38;5055397;28;20129;-70
2020/12/03 13:08:38;;;;;;;8.43;6.00;;;;;;;8.20;61.18;99146.78;5054473;28;20457;-70
2020/12/03 13:11:22;;;;;;;9.82;5.90;;;;;;;8.43;59.59;99155.88;5054526;28;20424;-70
2020/12/03 13:14:08;;;;;;;8.35;5.18;;;;;;;8.24;59.65;99133.03;5055114;28;20131;-70